createdAt,value
2019-01-27T00:00:38.070Z,6.67
2019-01-27T00:03:12.937Z,8.57
2019-01-27T00:05:47.564Z,8.37
2019-01-27T00:08:20.662Z,7.00
2019-01-27T00:10:53.804Z,7.13
2019-01-27T00:13:27.087Z,14.20
2019-01-27T00:16:01.694Z,7.20
2019-01-27T00:18:36.477Z,6.93
2019-01-27T00:21:10.047Z,6.87
2019-01-27T00:23:43.184Z,7.30
2019-01-27T00:26:16.477Z,7.53
2019-01-27T00:28:51.247Z,5.80
2019-01-27T00:31:24.429Z,8.93
2019-01-27T00:33:58.238Z,9.58
2019-01-27T00:36:32.527Z,7.90
2019-01-27T00:39:07.373Z,7.87
2019-01-27T00:41:41.860Z,6.37
2019-01-27T00:44:16.277Z,6.00
2019-01-27T00:46:51.707Z,6.87
2019-01-27T00:49:24.790Z,16.23
2019-01-27T00:51:59.685Z,7.20
2019-01-27T00:54:34.534Z,9.70
2019-01-27T00:57:07.963Z,9.10
2019-01-27T00:59:41.638Z,7.60
2019-01-27T01:02:14.831Z,9.13
2019-01-27T01:04:47.904Z,11.20
2019-01-27T01:07:21.184Z,7.30
2019-01-27T01:09:55.753Z,9.87
2019-01-27T01:12:28.725Z,16.70
2019-01-27T01:15:03.623Z,8.03
2019-01-27T01:17:37.655Z,5.83
2019-01-27T01:20:16.753Z,5.80
2019-01-27T01:22:51.323Z,15.97
2019-01-27T01:25:25.885Z,16.07
2019-01-27T01:28:01.121Z,13.70
2019-01-27T01:30:35.239Z,14.13
2019-01-27T01:33:08.594Z,15.17
2019-01-27T01:35:42.075Z,9.80
2019-01-27T01:38:15.238Z,7.80
2019-01-27T01:40:49.723Z,7.43
2019-01-27T01:43:24.302Z,11.80
2019-01-27T01:45:57.654Z,12.33
2019-01-27T01:48:31.300Z,11.33
2019-01-27T01:51:07.185Z,11.13
2019-01-27T01:53:42.445Z,9.63
2019-01-27T01:56:20.953Z,10.17
2019-01-27T01:58:53.914Z,10.90
2019-01-27T02:01:27.287Z,10.97
2019-01-27T02:04:02.792Z,9.30
2019-01-27T02:06:36.892Z,11.95
2019-01-27T02:09:16.338Z,11.10
2019-01-27T02:11:49.410Z,12.80
2019-01-27T02:14:23.927Z,21.60
2019-01-27T02:17:00.026Z,13.45
2019-01-27T02:19:34.292Z,11.53
2019-01-27T02:22:07.525Z,10.87
2019-01-27T02:24:42.073Z,10.97
2019-01-27T02:27:16.408Z,12.97
2019-01-27T02:29:49.724Z,12.45
2019-01-27T02:32:24.648Z,11.80
2019-01-27T02:34:58.033Z,12.60
2019-01-27T02:37:32.754Z,13.03
2019-01-27T02:40:09.148Z,16.03
2019-01-27T02:42:45.402Z,16.70
2019-01-27T02:45:18.700Z,16.17
2019-01-27T02:47:51.942Z,16.27
2019-01-27T02:50:26.000Z,16.60
2019-01-27T02:53:01.158Z,15.40
2019-01-27T02:55:34.326Z,14.30
2019-01-27T02:58:09.749Z,15.20
2019-01-27T03:00:46.977Z,13.70
2019-01-27T03:03:20.746Z,13.97
2019-01-27T03:06:05.312Z,13.07
2019-01-27T03:08:51.716Z,14.20
2019-01-27T03:11:30.668Z,20.30
2019-01-27T03:14:04.691Z,30.60
2019-01-27T03:16:38.059Z,21.67
2019-01-27T03:19:11.329Z,21.80
2019-01-27T03:21:45.703Z,16.40
2019-01-27T03:24:20.044Z,13.60
2019-01-27T03:26:53.293Z,9.90
2019-01-27T03:29:26.997Z,10.63
2019-01-27T03:32:02.928Z,10.63
2019-01-27T03:34:37.602Z,10.30
2019-01-27T03:37:14.324Z,9.40
2019-01-27T03:39:49.849Z,11.30
2019-01-27T03:42:23.301Z,10.13
2019-01-27T03:44:58.310Z,10.37
2019-01-27T03:47:43.588Z,13.10
2019-01-27T03:50:17.907Z,11.50
2019-01-27T03:52:51.839Z,11.90
2019-01-27T03:55:28.898Z,10.13
2019-01-27T03:58:02.055Z,10.07
2019-01-27T04:00:36.519Z,10.60
2019-01-27T04:03:09.692Z,10.07
2019-01-27T04:05:43.951Z,11.77
2019-01-27T04:08:18.236Z,12.13
2019-01-27T04:10:53.228Z,10.13
2019-01-27T04:13:29.417Z,9.80
2019-01-27T04:16:04.119Z,8.97
2019-01-27T04:18:38.261Z,8.70
2019-01-27T04:21:13.641Z,8.47
2019-01-27T04:23:47.710Z,9.83
2019-01-27T04:26:22.700Z,9.00
2019-01-27T04:28:56.724Z,9.27
2019-01-27T04:31:30.851Z,9.80
2019-01-27T04:34:06.625Z,9.40
2019-01-27T04:36:40.875Z,9.37
2019-01-27T04:39:16.501Z,9.47
2019-01-27T04:41:49.604Z,9.70
2019-01-27T04:44:22.828Z,8.07
2019-01-27T04:46:58.088Z,7.57
2019-01-27T04:49:31.133Z,7.43
2019-01-27T04:52:06.343Z,6.73
2019-01-27T04:54:39.237Z,6.43
2019-01-27T04:57:19.643Z,6.53
2019-01-27T04:59:52.885Z,6.60
2019-01-27T05:02:28.227Z,7.67
2019-01-27T05:05:02.538Z,6.20
2019-01-27T05:07:35.746Z,7.13
2019-01-27T05:10:11.684Z,7.63
2019-01-27T05:12:46.419Z,6.93
2019-01-27T05:15:27.298Z,6.80
2019-01-27T05:18:02.506Z,7.20
2019-01-27T05:20:35.564Z,7.30
2019-01-27T05:23:09.030Z,7.13
2019-01-27T05:25:42.412Z,6.37
2019-01-27T05:28:16.758Z,8.37
2019-01-27T05:30:50.379Z,7.80
2019-01-27T05:33:23.519Z,9.30
2019-01-27T05:35:56.967Z,7.90
2019-01-27T05:38:31.076Z,8.17
2019-01-27T05:41:04.276Z,7.87
2019-01-27T05:43:38.608Z,8.87
2019-01-27T05:46:13.950Z,8.37
2019-01-27T05:48:47.573Z,7.13
2019-01-27T05:51:21.314Z,7.17
2019-01-27T05:53:54.343Z,7.53
2019-01-27T05:56:27.547Z,8.95
2019-01-27T05:59:02.417Z,7.87
2019-01-27T06:01:37.548Z,7.40
2019-01-27T06:04:10.578Z,7.23
2019-01-27T06:06:43.961Z,8.70
2019-01-27T06:09:18.026Z,7.83
2019-01-27T06:11:51.360Z,8.50
2019-01-27T06:14:24.478Z,13.93
2019-01-27T06:16:58.826Z,9.03
2019-01-27T06:19:31.818Z,10.77
2019-01-27T06:22:06.372Z,9.83
2019-01-27T06:24:40.733Z,8.93
2019-01-27T06:27:15.285Z,10.37
2019-01-27T06:29:48.366Z,13.43
2019-01-27T06:32:43.581Z,13.73
2019-01-27T06:35:17.902Z,13.80
2019-01-27T06:37:50.996Z,11.70
2019-01-27T06:40:24.129Z,11.33
2019-01-27T06:42:57.268Z,9.87
2019-01-27T06:45:33.252Z,9.40
2019-01-27T06:48:06.480Z,9.33
2019-01-27T06:50:39.654Z,9.40
2019-01-27T06:53:13.872Z,11.65
2019-01-27T06:55:47.927Z,9.53
2019-01-27T06:58:22.340Z,8.57
2019-01-27T07:01:20.238Z,7.77
2019-01-27T07:04:13.608Z,8.53
2019-01-27T07:07:12.435Z,8.00
2019-01-27T07:10:00.880Z,7.93
2019-01-27T07:12:50.530Z,7.77
2019-01-27T07:15:46.574Z,9.50
2019-01-27T07:18:36.965Z,8.67
2019-01-27T07:21:23.965Z,7.97
2019-01-27T07:24:25.851Z,8.97
2019-01-27T07:27:18.186Z,8.70
2019-01-27T07:30:08.382Z,8.53
2019-01-27T07:33:11.678Z,7.80
2019-01-27T07:36:13.017Z,8.80
2019-01-27T07:39:02.928Z,8.83
2019-01-27T07:42:00.582Z,8.40
2019-01-27T07:44:42.964Z,8.23
2019-01-27T07:47:52.623Z,8.60
2019-01-27T07:50:48.258Z,8.27
2019-01-27T07:53:36.095Z,8.70
2019-01-27T07:56:26.595Z,7.90
2019-01-27T07:59:07.018Z,8.30
2019-01-27T08:01:48.246Z,8.63
2019-01-27T08:04:48.752Z,7.93
2019-01-27T08:07:40.087Z,8.53
2019-01-27T08:10:47.575Z,8.70
2019-01-27T08:13:48.416Z,8.53
2019-01-27T08:16:40.770Z,8.13
2019-01-27T08:19:25.818Z,8.87
2019-01-27T08:22:21.241Z,9.87
2019-01-27T08:25:15.370Z,11.37
2019-01-27T08:28:05.935Z,12.13
2019-01-27T08:30:52.017Z,12.10
2019-01-27T08:33:53.673Z,12.03
2019-01-27T08:36:58.708Z,11.70
2019-01-27T08:39:54.126Z,12.53
2019-01-27T08:42:58.043Z,13.23
2019-01-27T08:45:45.611Z,13.40
2019-01-27T08:48:21.497Z,12.73
2019-01-27T08:50:54.657Z,12.30
2019-01-27T08:53:27.772Z,11.30
2019-01-27T08:56:03.425Z,10.33
2019-01-27T08:58:36.590Z,11.87
2019-01-27T09:01:40.460Z,11.90
2019-01-27T09:04:21.539Z,10.57
2019-01-27T09:07:30.894Z,10.93
2019-01-27T09:10:22.286Z,13.48
2019-01-27T09:13:16.789Z,10.87
2019-01-27T09:16:04.900Z,11.30
2019-01-27T09:18:52.649Z,11.43
2019-01-27T09:21:42.553Z,10.57
2019-01-27T09:24:34.373Z,11.00
2019-01-27T09:27:33.798Z,10.73
2019-01-27T09:30:36.046Z,11.23
2019-01-27T09:33:23.203Z,11.13
2019-01-27T09:36:17.000Z,11.43
2019-01-27T09:39:05.146Z,13.07
2019-01-27T09:41:53.849Z,11.97
2019-01-27T09:44:53.980Z,13.98
2019-01-27T09:47:43.860Z,11.97
2019-01-27T09:50:35.387Z,11.87
2019-01-27T09:53:21.597Z,11.93
2019-01-27T09:56:11.675Z,11.77
2019-01-27T09:58:53.585Z,12.93
2019-01-27T10:01:43.877Z,13.17
2019-01-27T10:04:38.262Z,14.03
2019-01-27T10:07:32.948Z,13.00
2019-01-27T10:10:23.752Z,13.50
2019-01-27T10:13:21.320Z,14.67
2019-01-27T10:16:12.661Z,13.93
2019-01-27T10:19:02.642Z,14.43
2019-01-27T10:21:49.433Z,13.27
2019-01-27T10:24:39.439Z,13.50
2019-01-27T10:27:32.426Z,13.47
2019-01-27T10:30:27.906Z,13.77
2019-01-27T10:33:19.805Z,14.20
2019-01-27T10:36:13.370Z,14.93
2019-01-27T10:38:59.301Z,15.57
2019-01-27T10:41:39.806Z,15.03
2019-01-27T10:44:28.206Z,15.70
2019-01-27T10:47:18.202Z,16.90
2019-01-27T10:50:01.924Z,17.80
2019-01-27T10:53:14.569Z,18.73
2019-01-27T10:56:07.084Z,26.07
2019-01-27T10:58:58.258Z,26.00
2019-01-27T11:02:03.137Z,25.80
2019-01-27T11:04:53.008Z,27.40
2019-01-27T11:07:35.132Z,31.47
2019-01-27T11:10:29.064Z,27.57
2019-01-27T11:13:27.914Z,24.03
2019-01-27T11:16:18.202Z,23.60
2019-01-27T11:19:15.267Z,22.63
2019-01-27T11:22:12.731Z,22.33
2019-01-27T11:24:56.668Z,20.97
2019-01-27T11:27:41.825Z,19.27
2019-01-27T11:30:37.966Z,19.13
2019-01-27T11:33:27.757Z,26.87
2019-01-27T11:36:27.871Z,22.67
2019-01-27T11:39:23.168Z,26.23
2019-01-27T11:42:17.295Z,31.73
2019-01-27T11:45:01.716Z,32.83
2019-01-27T11:48:00.960Z,30.23
2019-01-27T11:50:47.699Z,31.33
2019-01-27T11:53:20.973Z,29.90
2019-01-27T11:55:54.342Z,30.47
2019-01-27T11:58:27.480Z,31.07
2019-01-27T12:01:03.067Z,29.00
2019-01-27T12:03:36.116Z,27.27
2019-01-27T12:06:16.165Z,23.43
2019-01-27T12:08:51.514Z,25.00
2019-01-27T12:11:24.806Z,25.17
2019-01-27T12:13:59.357Z,23.67
2019-01-27T12:16:33.674Z,21.60
2019-01-27T12:19:09.991Z,22.33
2019-01-27T12:21:46.325Z,24.60
2019-01-27T12:24:19.600Z,22.03
2019-01-27T12:26:56.231Z,23.07
2019-01-27T12:29:29.137Z,23.63
2019-01-27T12:32:02.849Z,25.77
2019-01-27T12:34:37.979Z,28.30
2019-01-27T12:37:18.425Z,25.20
2019-01-27T12:39:52.029Z,23.53
2019-01-27T12:42:25.437Z,23.27
2019-01-27T12:44:58.814Z,27.87
2019-01-27T12:47:32.752Z,26.93
2019-01-27T12:50:06.342Z,27.43
2019-01-27T12:52:40.003Z,25.17
2019-01-27T12:55:14.476Z,25.13
2019-01-27T12:57:49.028Z,26.60
2019-01-27T13:00:28.535Z,29.33
2019-01-27T13:03:01.763Z,31.63
2019-01-27T13:05:36.569Z,30.53
2019-01-27T13:08:12.078Z,30.00
2019-01-27T13:10:45.592Z,30.03
2019-01-27T13:13:21.607Z,29.60
2019-01-27T13:15:55.004Z,31.50
2019-01-27T13:18:29.314Z,30.13
2019-01-27T13:21:02.732Z,27.27
2019-01-27T13:23:36.125Z,25.23
2019-01-27T13:26:09.270Z,23.80
2019-01-27T13:28:42.956Z,25.73
2019-01-27T13:31:18.747Z,24.83
2019-01-27T13:33:52.243Z,23.87
2019-01-27T13:36:27.914Z,24.40
2019-01-27T13:39:01.746Z,27.50
2019-01-27T13:41:38.246Z,31.30
2019-01-27T13:44:11.324Z,32.57
2019-01-27T13:46:44.557Z,35.33
2019-01-27T13:49:19.280Z,37.10
2019-01-27T13:51:53.628Z,39.85
2019-01-27T13:54:26.720Z,32.97
2019-01-27T13:57:02.186Z,34.30
2019-01-27T13:59:35.400Z,34.03
2019-01-27T14:02:09.839Z,34.23
2019-01-27T14:04:48.443Z,31.47
2019-01-27T14:07:19.381Z,31.57
2019-01-27T14:09:53.108Z,27.33
2019-01-27T14:12:27.837Z,27.10
2019-01-27T14:15:12.662Z,25.87
2019-01-27T14:17:43.384Z,24.00
2019-01-27T14:20:17.945Z,25.83
2019-01-27T14:22:52.254Z,23.33
2019-01-27T14:25:27.971Z,24.25
2019-01-27T14:28:01.489Z,21.50
2019-01-27T14:30:37.111Z,22.27
2019-01-27T14:33:10.612Z,25.90
2019-01-27T14:35:45.768Z,24.50
2019-01-27T14:38:19.661Z,27.70
2019-01-27T14:40:52.961Z,27.00
2019-01-27T14:43:26.004Z,27.87
2019-01-27T14:46:00.084Z,28.00
2019-01-27T14:48:34.561Z,28.67
2019-01-27T14:51:07.790Z,25.63
2019-01-27T14:53:44.635Z,23.83
2019-01-27T14:56:18.501Z,23.73
2019-01-27T14:58:52.239Z,24.83
2019-01-27T15:01:26.545Z,26.57
2019-01-27T15:04:01.046Z,21.80
2019-01-27T15:06:41.277Z,21.77
2019-01-27T15:09:14.542Z,21.83
2019-01-27T15:11:49.189Z,21.33
2019-01-27T15:14:22.219Z,21.53
2019-01-27T15:16:55.361Z,21.17
2019-01-27T15:19:28.531Z,19.33
2019-01-27T15:22:04.279Z,21.07
2019-01-27T15:24:37.982Z,19.77
2019-01-27T15:27:18.064Z,20.70
2019-01-27T15:29:51.405Z,21.23
2019-01-27T15:32:25.975Z,20.37
2019-01-27T15:34:59.743Z,19.67
2019-01-27T15:37:38.983Z,20.00
2019-01-27T15:40:13.050Z,18.57
2019-01-27T15:42:46.521Z,20.03
2019-01-27T15:45:21.943Z,20.02
2019-01-27T15:48:06.276Z,18.63
2019-01-27T15:50:39.648Z,18.97
2019-01-27T15:53:15.537Z,19.60
2019-01-27T15:55:48.833Z,17.90
2019-01-27T15:58:22.218Z,16.43
2019-01-27T16:00:56.295Z,18.70
2019-01-27T16:03:29.672Z,15.10
2019-01-27T16:06:02.749Z,15.13
2019-01-27T16:08:36.179Z,13.90
2019-01-27T16:11:09.278Z,12.70
2019-01-27T16:13:42.944Z,13.93
2019-01-27T16:16:17.169Z,13.90
2019-01-27T16:18:50.219Z,13.47
2019-01-27T16:21:23.414Z,12.13
2019-01-27T16:23:58.959Z,11.80
2019-01-27T16:26:32.092Z,12.57
2019-01-27T16:29:06.664Z,13.67
2019-01-27T16:31:47.201Z,14.83
2019-01-27T16:34:29.394Z,14.43
2019-01-27T16:37:04.666Z,12.30
2019-01-27T16:39:39.090Z,14.10
2019-01-27T16:42:13.640Z,13.37
2019-01-27T16:44:47.256Z,14.33
2019-01-27T16:47:23.601Z,12.77
2019-01-27T16:49:57.291Z,11.73
2019-01-27T16:52:31.724Z,13.28
2019-01-27T16:55:04.929Z,12.10
2019-01-27T16:57:38.097Z,13.13
2019-01-27T17:00:15.386Z,12.40
2019-01-27T17:02:49.700Z,11.63
2019-01-27T17:05:25.871Z,9.83
2019-01-27T17:07:59.667Z,10.83
2019-01-27T17:10:35.831Z,11.50
2019-01-27T17:13:09.719Z,11.37
2019-01-27T17:15:43.139Z,10.87
2019-01-27T17:18:16.464Z,10.97
2019-01-27T17:20:49.562Z,11.40
2019-01-27T17:23:24.293Z,12.40
2019-01-27T17:26:07.358Z,11.07
2019-01-27T17:28:41.685Z,10.70
2019-01-27T17:31:15.333Z,9.67
2019-01-27T17:33:49.542Z,9.97
2019-01-27T17:36:22.776Z,10.90
2019-01-27T17:38:56.309Z,11.87
2019-01-27T17:41:29.746Z,12.40
2019-01-27T17:44:03.884Z,10.83
2019-01-27T17:46:44.051Z,10.70
2019-01-27T17:49:17.165Z,11.83
2019-01-27T17:51:50.411Z,12.17
2019-01-27T17:54:24.693Z,12.50
2019-01-27T17:57:21.909Z,10.43
2019-01-27T18:00:05.258Z,12.43
2019-01-27T18:02:51.140Z,11.83
2019-01-27T18:05:35.673Z,12.87
2019-01-27T18:08:17.647Z,11.37
2019-01-27T18:10:59.241Z,12.10
2019-01-27T18:13:39.064Z,11.87
2019-01-27T18:16:17.438Z,11.80
2019-01-27T18:18:50.532Z,12.20
2019-01-27T18:21:24.958Z,13.00
2019-01-27T18:23:58.238Z,13.33
2019-01-27T18:26:32.520Z,13.13
2019-01-27T18:29:06.470Z,14.97
2019-01-27T18:31:40.764Z,15.70
2019-01-27T18:34:14.854Z,15.93
2019-01-27T18:36:49.723Z,14.13
2019-01-27T18:39:23.921Z,13.17
2019-01-27T18:41:56.996Z,13.90
2019-01-27T18:44:30.543Z,15.13
2019-01-27T18:47:04.258Z,14.00
2019-01-27T18:49:38.571Z,13.80
2019-01-27T18:52:11.681Z,13.73
2019-01-27T18:55:03.282Z,15.58
2019-01-27T18:57:54.407Z,14.90
2019-01-27T19:00:44.446Z,14.60
2019-01-27T19:03:40.902Z,14.33
2019-01-27T19:06:35.205Z,14.93
2019-01-27T19:09:37.083Z,16.20
2019-01-27T19:12:24.150Z,17.87
2019-01-27T19:15:22.843Z,17.20
2019-01-27T19:18:21.598Z,16.97
2019-01-27T19:21:15.779Z,19.12
2019-01-27T19:24:13.934Z,17.93
2019-01-27T19:27:31.183Z,18.40
2019-01-27T19:30:11.348Z,19.20
2019-01-27T19:32:58.600Z,19.60
2019-01-27T19:35:49.232Z,21.07
2019-01-27T19:38:39.109Z,18.60
2019-01-27T19:41:29.520Z,19.60
2019-01-27T19:44:31.897Z,20.50
2019-01-27T19:47:28.443Z,20.52
2019-01-27T19:50:16.134Z,20.80
2019-01-27T19:53:10.193Z,19.80
2019-01-27T19:56:16.901Z,20.83
2019-01-27T19:59:17.137Z,19.83
2019-01-27T20:02:09.676Z,20.77
2019-01-27T20:05:02.303Z,19.07
2019-01-27T20:07:54.823Z,18.30
2019-01-27T20:10:48.954Z,17.53
2019-01-27T20:13:32.772Z,18.67
2019-01-27T20:16:18.818Z,18.10
2019-01-27T20:19:15.363Z,19.80
2019-01-27T20:22:21.671Z,18.77
2019-01-27T20:25:19.290Z,18.90
2019-01-27T20:28:10.591Z,18.20
2019-01-27T20:31:02.029Z,19.77
2019-01-27T20:33:59.237Z,18.55
2019-01-27T20:36:56.542Z,18.82
2019-01-27T20:39:38.297Z,18.92
2019-01-27T20:42:18.579Z,18.05
2019-01-27T20:45:08.671Z,18.12
2019-01-27T20:48:01.592Z,19.17
2019-01-27T20:50:56.954Z,18.90
2019-01-27T20:53:38.788Z,19.65
2019-01-27T20:56:30.261Z,20.00
2019-01-27T20:59:26.193Z,18.48
2019-01-27T21:02:09.548Z,18.92
2019-01-27T21:04:56.534Z,19.42
2019-01-27T21:07:35.122Z,17.87
2019-01-27T21:10:41.766Z,20.05
2019-01-27T21:13:23.033Z,18.65
2019-01-27T21:16:34.394Z,19.77
2019-01-27T21:19:21.042Z,19.60
2019-01-27T21:21:56.473Z,18.70
2019-01-27T21:24:31.322Z,18.95
2019-01-27T21:27:06.531Z,18.95
2019-01-27T21:29:40.525Z,17.42
2019-01-27T21:32:13.511Z,19.98
2019-01-27T21:34:46.612Z,20.50
2019-01-27T21:37:22.622Z,29.10
2019-01-27T21:39:55.792Z,22.83
2019-01-27T21:42:28.988Z,28.65
2019-01-27T21:45:02.210Z,28.53
2019-01-27T21:47:40.619Z,24.87
2019-01-27T21:50:16.814Z,18.48
2019-01-27T21:52:50.935Z,19.35
2019-01-27T21:55:27.798Z,18.92
2019-01-27T21:58:02.459Z,21.00
2019-01-27T22:00:36.613Z,23.13
2019-01-27T22:03:10.720Z,20.10
2019-01-27T22:05:55.146Z,21.83
2019-01-27T22:08:28.354Z,20.50
2019-01-27T22:11:02.059Z,19.48
2019-01-27T22:13:35.097Z,21.17
2019-01-27T22:16:10.390Z,25.33
2019-01-27T22:18:43.596Z,22.05
2019-01-27T22:21:18.715Z,21.52
2019-01-27T22:23:52.897Z,23.53
2019-01-27T22:26:28.597Z,21.93
2019-01-27T22:29:19.857Z,21.23
2019-01-27T22:31:53.357Z,20.97
2019-01-27T22:34:26.700Z,22.40
2019-01-27T22:37:00.070Z,24.72
2019-01-27T22:39:32.957Z,22.50
2019-01-27T22:42:06.510Z,22.03
2019-01-27T22:44:42.393Z,22.87
2019-01-27T22:47:26.043Z,23.63
2019-01-27T22:49:59.937Z,29.52
2019-01-27T22:52:33.954Z,23.70
2019-01-27T22:55:07.816Z,23.63
2019-01-27T22:57:54.535Z,22.77
2019-01-27T23:01:15.079Z,21.50
2019-01-27T23:03:50.342Z,20.43
2019-01-27T23:06:31.603Z,21.97
2019-01-27T23:09:06.015Z,23.20
2019-01-27T23:11:39.222Z,24.13
2019-01-27T23:14:12.322Z,23.57
2019-01-27T23:16:46.283Z,21.40
2019-01-27T23:19:19.113Z,22.47
2019-01-27T23:21:51.911Z,22.47
2019-01-27T23:24:25.033Z,25.57
2019-01-27T23:26:57.911Z,25.27
2019-01-27T23:29:30.860Z,25.20
2019-01-27T23:32:03.636Z,24.37
2019-01-27T23:34:36.486Z,26.82
2019-01-27T23:37:09.357Z,25.60
2019-01-27T23:39:42.925Z,24.23
2019-01-27T23:42:15.900Z,25.37
2019-01-27T23:44:50.548Z,27.03
2019-01-27T23:47:24.524Z,26.23
2019-01-27T23:49:57.703Z,28.53
2019-01-27T23:52:30.975Z,29.03
2019-01-27T23:55:04.813Z,30.13
2019-01-27T23:57:51.566Z,29.17
